sensor_id;sensor_type;location;lat;lon;timestamp;temperature;humidity
4811;DHT22;2419;51.276;6.472;2023-03-11T00:00:31;2.20;99.90
4811;DHT22;2419;51.276;6.472;2023-03-11T00:03:01;2.10;99.90
4811;DHT22;2419;51.276;6.472;2023-03-11T00:05:31;2.10;99.90
4811;DHT22;2419;51.276;6.472;2023-03-11T00:08:01;2.10;99.90
4811;DHT22;2419;51.276;6.472;2023-03-11T00:10:31;2.20;99.90
4811;DHT22;2419;51.276;6.472;2023-03-11T00:13:03;2.20;99.90
4811;DHT22;2419;51.276;6.472;2023-03-11T00:15:32;2.20;99.90
4811;DHT22;2419;51.276;6.472;2023-03-11T00:18:00;2.20;99.90
4811;DHT22;2419;51.276;6.472;2023-03-11T00:20:30;2.20;99.90
4811;DHT22;2419;51.276;6.472;2023-03-11T00:22:58;2.20;99.90
4811;DHT22;2419;51.276;6.472;2023-03-11T00:25:29;2.20;99.90
4811;DHT22;2419;51.276;6.472;2023-03-11T00:27:57;2.20;99.90
4811;DHT22;2419;51.276;6.472;2023-03-11T00:30:27;2.20;99.90
4811;DHT22;2419;51.276;6.472;2023-03-11T00:32:57;2.20;99.90
4811;DHT22;2419;51.276;6.472;2023-03-11T00:35:27;2.20;99.90
4811;DHT22;2419;51.276;6.472;2023-03-11T00:37:57;2.20;99.90
4811;DHT22;2419;51.276;6.472;2023-03-11T00:40:28;2.20;99.90
4811;DHT22;2419;51.276;6.472;2023-03-11T00:42:56;2.10;99.90
4811;DHT22;2419;51.276;6.472;2023-03-11T00:45:27;2.10;99.90
4811;DHT22;2419;51.276;6.472;2023-03-11T00:47:55;2.10;99.90
4811;DHT22;2419;51.276;6.472;2023-03-11T00:50:26;2.00;99.90
4811;DHT22;2419;51.276;6.472;2023-03-11T00:52:55;1.90;99.90
4811;DHT22;2419;51.276;6.472;2023-03-11T00:55:25;1.80;99.90
4811;DHT22;2419;51.276;6.472;2023-03-11T00:57:56;1.70;99.90
4811;DHT22;2419;51.276;6.472;2023-03-11T01:00:28;1.70;99.90
4811;DHT22;2419;51.276;6.472;2023-03-11T01:02:58;1.50;99.90
4811;DHT22;2419;51.276;6.472;2023-03-11T01:05:28;1.40;99.90
4811;DHT22;2419;51.276;6.472;2023-03-11T01:07:57;1.40;99.90
4811;DHT22;2419;51.276;6.472;2023-03-11T01:10:26;1.40;99.90
4811;DHT22;2419;51.276;6.472;2023-03-11T01:12:55;1.30;99.90
4811;DHT22;2419;51.276;6.472;2023-03-11T01:15:25;1.30;99.90
4811;DHT22;2419;51.276;6.472;2023-03-11T01:17:55;1.20;99.90
4811;DHT22;2419;51.276;6.472;2023-03-11T01:20:23;1.20;99.90
4811;DHT22;2419;51.276;6.472;2023-03-11T01:22:52;1.10;99.90
4811;DHT22;2419;51.276;6.472;2023-03-11T01:25:22;1.10;99.90
4811;DHT22;2419;51.276;6.472;2023-03-11T01:27:50;1.00;99.90
4811;DHT22;2419;51.276;6.472;2023-03-11T01:30:20;1.10;99.90
4811;DHT22;2419;51.276;6.472;2023-03-11T01:32:50;1.00;99.90
4811;DHT22;2419;51.276;6.472;2023-03-11T01:35:22;1.10;99.90
4811;DHT22;2419;51.276;6.472;2023-03-11T01:37:52;1.00;99.90
4811;DHT22;2419;51.276;6.472;2023-03-11T01:40:28;1.00;99.90
4811;DHT22;2419;51.276;6.472;2023-03-11T01:43:00;1.00;99.90
4811;DHT22;2419;51.276;6.472;2023-03-11T01:45:40;0.90;99.90
4811;DHT22;2419;51.276;6.472;2023-03-11T01:48:10;1.00;99.90
4811;DHT22;2419;51.276;6.472;2023-03-11T01:50:43;0.90;99.90
4811;DHT22;2419;51.276;6.472;2023-03-11T01:53:12;0.90;99.90
4811;DHT22;2419;51.276;6.472;2023-03-11T01:55:43;0.90;99.90
4811;DHT22;2419;51.276;6.472;2023-03-11T01:58:15;0.80;99.90
4811;DHT22;2419;51.276;6.472;2023-03-11T02:00:45;0.80;99.90
4811;DHT22;2419;51.276;6.472;2023-03-11T02:03:17;0.80;99.90
4811;DHT22;2419;51.276;6.472;2023-03-11T02:05:49;0.80;99.90
4811;DHT22;2419;51.276;6.472;2023-03-11T02:08:18;0.70;99.90
4811;DHT22;2419;51.276;6.472;2023-03-11T02:10:47;0.70;99.90
4811;DHT22;2419;51.276;6.472;2023-03-11T02:13:17;0.70;99.90
4811;DHT22;2419;51.276;6.472;2023-03-11T02:15:45;0.70;99.90
4811;DHT22;2419;51.276;6.472;2023-03-11T02:18:14;0.70;99.90
4811;DHT22;2419;51.276;6.472;2023-03-11T02:20:47;0.60;99.90
4811;DHT22;2419;51.276;6.472;2023-03-11T02:23:17;0.60;99.90
4811;DHT22;2419;51.276;6.472;2023-03-11T02:25:51;0.60;99.90
4811;DHT22;2419;51.276;6.472;2023-03-11T02:28:23;0.60;99.90
4811;DHT22;2419;51.276;6.472;2023-03-11T02:30:52;0.60;99.90
4811;DHT22;2419;51.276;6.472;2023-03-11T02:33:25;0.60;99.90
4811;DHT22;2419;51.276;6.472;2023-03-11T02:35:55;0.60;99.90
4811;DHT22;2419;51.276;6.472;2023-03-11T02:38:24;0.60;99.90
4811;DHT22;2419;51.276;6.472;2023-03-11T02:40:54;0.60;99.90
4811;DHT22;2419;51.276;6.472;2023-03-11T02:43:32;0.60;99.90
4811;DHT22;2419;51.276;6.472;2023-03-11T02:46:04;0.60;99.90
4811;DHT22;2419;51.276;6.472;2023-03-11T02:48:35;0.60;99.90
4811;DHT22;2419;51.276;6.472;2023-03-11T02:51:04;0.50;99.90
4811;DHT22;2419;51.276;6.472;2023-03-11T02:53:36;0.50;99.90
4811;DHT22;2419;51.276;6.472;2023-03-11T02:56:06;0.40;99.90
4811;DHT22;2419;51.276;6.472;2023-03-11T02:58:35;0.40;99.90
4811;DHT22;2419;51.276;6.472;2023-03-11T03:01:04;0.40;99.90
4811;DHT22;2419;51.276;6.472;2023-03-11T03:03:33;0.40;99.90
4811;DHT22;2419;51.276;6.472;2023-03-11T03:06:01;0.40;99.90
4811;DHT22;2419;51.276;6.472;2023-03-11T03:08:30;0.40;99.90
4811;DHT22;2419;51.276;6.472;2023-03-11T03:10:58;0.30;99.90
4811;DHT22;2419;51.276;6.472;2023-03-11T03:13:26;0.30;99.90
4811;DHT22;2419;51.276;6.472;2023-03-11T03:15:57;0.40;99.90
4811;DHT22;2419;51.276;6.472;2023-03-11T03:18:25;0.40;99.90
4811;DHT22;2419;51.276;6.472;2023-03-11T03:20:53;0.30;99.90
4811;DHT22;2419;51.276;6.472;2023-03-11T03:23:21;0.30;99.90
4811;DHT22;2419;51.276;6.472;2023-03-11T03:25:49;0.30;99.90
4811;DHT22;2419;51.276;6.472;2023-03-11T03:28:18;0.20;99.90
4811;DHT22;2419;51.276;6.472;2023-03-11T03:30:46;0.20;99.90
4811;DHT22;2419;51.276;6.472;2023-03-11T03:33:16;0.20;99.90
4811;DHT22;2419;51.276;6.472;2023-03-11T03:35:44;0.10;99.90
4811;DHT22;2419;51.276;6.472;2023-03-11T03:38:20;0.10;99.90
4811;DHT22;2419;51.276;6.472;2023-03-11T03:40:49;0.10;99.90
4811;DHT22;2419;51.276;6.472;2023-03-11T03:43:20;0.10;99.90
4811;DHT22;2419;51.276;6.472;2023-03-11T03:45:55;0.10;99.90
4811;DHT22;2419;51.276;6.472;2023-03-11T03:48:27;0.20;99.90
4811;DHT22;2419;51.276;6.472;2023-03-11T03:50:55;0.10;99.90
4811;DHT22;2419;51.276;6.472;2023-03-11T03:53:24;0.00;99.90
4811;DHT22;2419;51.276;6.472;2023-03-11T03:55:52;0.00;99.90
4811;DHT22;2419;51.276;6.472;2023-03-11T03:58:24;-0.10;99.90
4811;DHT22;2419;51.276;6.472;2023-03-11T04:00:54;-0.10;99.90
4811;DHT22;2419;51.276;6.472;2023-03-11T04:03:23;0.00;99.90
4811;DHT22;2419;51.276;6.472;2023-03-11T04:06:06;-0.10;99.90
4811;DHT22;2419;51.276;6.472;2023-03-11T04:08:35;-0.10;99.90
4811;DHT22;2419;51.276;6.472;2023-03-11T04:11:03;0.00;99.90
4811;DHT22;2419;51.276;6.472;2023-03-11T04:13:35;0.00;99.90
4811;DHT22;2419;51.276;6.472;2023-03-11T04:16:05;0.00;99.90
4811;DHT22;2419;51.276;6.472;2023-03-11T04:18:34;0.00;99.90
4811;DHT22;2419;51.276;6.472;2023-03-11T04:21:07;0.10;99.90
4811;DHT22;2419;51.276;6.472;2023-03-11T04:23:35;0.20;99.90
4811;DHT22;2419;51.276;6.472;2023-03-11T04:26:05;0.20;99.90
4811;DHT22;2419;51.276;6.472;2023-03-11T04:28:35;0.40;99.90
4811;DHT22;2419;51.276;6.472;2023-03-11T04:31:03;0.40;99.90
4811;DHT22;2419;51.276;6.472;2023-03-11T04:33:33;0.40;99.90
4811;DHT22;2419;51.276;6.472;2023-03-11T04:36:04;0.50;99.90
4811;DHT22;2419;51.276;6.472;2023-03-11T04:38:35;0.50;99.90
4811;DHT22;2419;51.276;6.472;2023-03-11T04:41:05;0.50;99.90
4811;DHT22;2419;51.276;6.472;2023-03-11T04:43:37;0.50;99.90
4811;DHT22;2419;51.276;6.472;2023-03-11T04:46:05;0.50;99.90
4811;DHT22;2419;51.276;6.472;2023-03-11T04:48:33;0.50;99.90
4811;DHT22;2419;51.276;6.472;2023-03-11T04:51:02;0.60;99.90
4811;DHT22;2419;51.276;6.472;2023-03-11T04:53:31;0.60;99.90
4811;DHT22;2419;51.276;6.472;2023-03-11T04:56:00;0.60;99.90
4811;DHT22;2419;51.276;6.472;2023-03-11T04:58:29;0.60;99.90
4811;DHT22;2419;51.276;6.472;2023-03-11T05:00:58;0.50;99.90
4811;DHT22;2419;51.276;6.472;2023-03-11T05:03:26;0.60;99.90
4811;DHT22;2419;51.276;6.472;2023-03-11T05:05:54;0.60;99.90
4811;DHT22;2419;51.276;6.472;2023-03-11T05:08:23;0.60;99.90
4811;DHT22;2419;51.276;6.472;2023-03-11T05:10:52;0.70;99.90
4811;DHT22;2419;51.276;6.472;2023-03-11T05:13:23;0.60;99.90
4811;DHT22;2419;51.276;6.472;2023-03-11T05:15:52;0.60;99.90
4811;DHT22;2419;51.276;6.472;2023-03-11T05:18:20;0.60;99.90
4811;DHT22;2419;51.276;6.472;2023-03-11T05:20:49;0.60;99.90
4811;DHT22;2419;51.276;6.472;2023-03-11T05:23:21;0.60;99.90
4811;DHT22;2419;51.276;6.472;2023-03-11T05:25:50;0.60;99.90
4811;DHT22;2419;51.276;6.472;2023-03-11T05:28:19;0.60;99.90
4811;DHT22;2419;51.276;6.472;2023-03-11T05:30:52;0.60;99.90
4811;DHT22;2419;51.276;6.472;2023-03-11T05:33:20;0.60;99.90
4811;DHT22;2419;51.276;6.472;2023-03-11T05:35:50;0.60;99.90
4811;DHT22;2419;51.276;6.472;2023-03-11T05:38:19;0.60;99.90
4811;DHT22;2419;51.276;6.472;2023-03-11T05:40:47;0.60;99.90
4811;DHT22;2419;51.276;6.472;2023-03-11T05:43:15;0.60;99.90
4811;DHT22;2419;51.276;6.472;2023-03-11T05:45:51;0.50;99.90
4811;DHT22;2419;51.276;6.472;2023-03-11T05:48:20;0.50;99.90
4811;DHT22;2419;51.276;6.472;2023-03-11T05:50:48;0.50;99.90
4811;DHT22;2419;51.276;6.472;2023-03-11T05:53:17;0.50;99.90
4811;DHT22;2419;51.276;6.472;2023-03-11T05:55:45;0.50;99.90
4811;DHT22;2419;51.276;6.472;2023-03-11T05:58:23;0.40;99.90
4811;DHT22;2419;51.276;6.472;2023-03-11T06:00:52;0.40;99.90
4811;DHT22;2419;51.276;6.472;2023-03-11T06:03:20;0.40;99.90
4811;DHT22;2419;51.276;6.472;2023-03-11T06:05:49;0.40;99.90
4811;DHT22;2419;51.276;6.472;2023-03-11T06:08:18;0.40;99.90
4811;DHT22;2419;51.276;6.472;2023-03-11T06:10:47;0.40;99.90
4811;DHT22;2419;51.276;6.472;2023-03-11T06:13:17;0.40;99.90
4811;DHT22;2419;51.276;6.472;2023-03-11T06:15:48;0.40;99.90
4811;DHT22;2419;51.276;6.472;2023-03-11T06:18:19;0.30;99.90
4811;DHT22;2419;51.276;6.472;2023-03-11T06:20:48;0.40;99.90
4811;DHT22;2419;51.276;6.472;2023-03-11T06:23:16;0.40;99.90
4811;DHT22;2419;51.276;6.472;2023-03-11T06:25:54;0.40;99.90
4811;DHT22;2419;51.276;6.472;2023-03-11T06:28:23;0.40;99.90
4811;DHT22;2419;51.276;6.472;2023-03-11T06:30:51;0.40;99.90
4811;DHT22;2419;51.276;6.472;2023-03-11T06:33:24;0.30;99.90
4811;DHT22;2419;51.276;6.472;2023-03-11T06:35:56;0.30;99.90
4811;DHT22;2419;51.276;6.472;2023-03-11T06:38:25;0.30;99.90
4811;DHT22;2419;51.276;6.472;2023-03-11T06:40:57;0.40;99.90
4811;DHT22;2419;51.276;6.472;2023-03-11T06:43:25;0.50;99.90
4811;DHT22;2419;51.276;6.472;2023-03-11T06:45:54;0.50;99.90
4811;DHT22;2419;51.276;6.472;2023-03-11T06:48:23;0.50;99.90
4811;DHT22;2419;51.276;6.472;2023-03-11T06:50:53;0.50;99.90
4811;DHT22;2419;51.276;6.472;2023-03-11T06:53:21;1.40;99.90
4811;DHT22;2419;51.276;6.472;2023-03-11T06:56:01;2.40;99.90
4811;DHT22;2419;51.276;6.472;2023-03-11T06:58:34;3.10;99.90
4811;DHT22;2419;51.276;6.472;2023-03-11T07:01:04;4.10;99.90
4811;DHT22;2419;51.276;6.472;2023-03-11T07:03:35;4.60;99.90
4811;DHT22;2419;51.276;6.472;2023-03-11T07:06:04;5.00;99.90
4811;DHT22;2419;51.276;6.472;2023-03-11T07:08:33;4.80;99.90
4811;DHT22;2419;51.276;6.472;2023-03-11T07:11:03;3.50;99.90
4811;DHT22;2419;51.276;6.472;2023-03-11T07:13:33;2.80;99.90
4811;DHT22;2419;51.276;6.472;2023-03-11T07:16:03;2.30;99.90
4811;DHT22;2419;51.276;6.472;2023-03-11T07:18:35;2.20;99.90
4811;DHT22;2419;51.276;6.472;2023-03-11T07:21:05;2.20;99.90
4811;DHT22;2419;51.276;6.472;2023-03-11T07:23:34;2.60;99.90
4811;DHT22;2419;51.276;6.472;2023-03-11T07:26:03;2.70;99.90
4811;DHT22;2419;51.276;6.472;2023-03-11T07:28:31;2.80;99.90
4811;DHT22;2419;51.276;6.472;2023-03-11T07:30:59;3.60;99.90
4811;DHT22;2419;51.276;6.472;2023-03-11T07:33:33;5.30;99.90
4811;DHT22;2419;51.276;6.472;2023-03-11T07:36:06;6.70;99.90
4811;DHT22;2419;51.276;6.472;2023-03-11T07:38:35;6.70;99.90
4811;DHT22;2419;51.276;6.472;2023-03-11T07:41:04;6.50;99.90
4811;DHT22;2419;51.276;6.472;2023-03-11T07:43:32;7.80;99.10
4811;DHT22;2419;51.276;6.472;2023-03-11T07:46:05;8.10;97.50
4811;DHT22;2419;51.276;6.472;2023-03-11T07:48:34;7.60;97.60
4811;DHT22;2419;51.276;6.472;2023-03-11T07:51:05;7.80;98.90
4811;DHT22;2419;51.276;6.472;2023-03-11T07:53:34;8.40;96.90
4811;DHT22;2419;51.276;6.472;2023-03-11T07:56:03;8.80;95.30
4811;DHT22;2419;51.276;6.472;2023-03-11T07:58:32;9.40;93.70
4811;DHT22;2419;51.276;6.472;2023-03-11T08:01:03;9.80;93.10
4811;DHT22;2419;51.276;6.472;2023-03-11T08:03:31;10.40;92.60
4811;DHT22;2419;51.276;6.472;2023-03-11T08:05:59;10.80;91.50
4811;DHT22;2419;51.276;6.472;2023-03-11T08:08:29;11.80;87.90
4811;DHT22;2419;51.276;6.472;2023-03-11T08:10:57;12.00;90.00
4811;DHT22;2419;51.276;6.472;2023-03-11T08:13:25;11.00;87.00
4811;DHT22;2419;51.276;6.472;2023-03-11T08:15:53;9.80;88.90
4811;DHT22;2419;51.276;6.472;2023-03-11T08:18:21;10.60;89.20
4811;DHT22;2419;51.276;6.472;2023-03-11T08:20:49;9.80;89.60
4811;DHT22;2419;51.276;6.472;2023-03-11T08:23:17;9.40;89.90
4811;DHT22;2419;51.276;6.472;2023-03-11T08:25:47;9.20;89.80
4811;DHT22;2419;51.276;6.472;2023-03-11T08:28:15;9.30;91.50
4811;DHT22;2419;51.276;6.472;2023-03-11T08:30:43;9.50;91.10
4811;DHT22;2419;51.276;6.472;2023-03-11T08:33:12;9.60;90.70
4811;DHT22;2419;51.276;6.472;2023-03-11T08:35:40;10.00;90.90
4811;DHT22;2419;51.276;6.472;2023-03-11T08:38:08;9.70;90.50
4811;DHT22;2419;51.276;6.472;2023-03-11T08:40:37;9.70;90.00
4811;DHT22;2419;51.276;6.472;2023-03-11T08:43:06;9.80;89.30
4811;DHT22;2419;51.276;6.472;2023-03-11T08:45:35;10.70;90.10
4811;DHT22;2419;51.276;6.472;2023-03-11T08:48:03;10.80;87.00
4811;DHT22;2419;51.276;6.472;2023-03-11T08:50:31;9.70;90.30
4811;DHT22;2419;51.276;6.472;2023-03-11T08:53:13;10.00;90.40
4811;DHT22;2419;51.276;6.472;2023-03-11T08:55:41;10.80;88.50
4811;DHT22;2419;51.276;6.472;2023-03-11T08:58:11;11.60;83.10
4811;DHT22;2419;51.276;6.472;2023-03-11T09:00:39;12.00;83.80
4811;DHT22;2419;51.276;6.472;2023-03-11T09:03:07;11.50;81.50
4811;DHT22;2419;51.276;6.472;2023-03-11T09:05:36;9.20;86.10
4811;DHT22;2419;51.276;6.472;2023-03-11T09:08:04;8.50;90.10
4811;DHT22;2419;51.276;6.472;2023-03-11T09:10:32;8.90;90.80
4811;DHT22;2419;51.276;6.472;2023-03-11T09:13:00;10.00;90.10
4811;DHT22;2419;51.276;6.472;2023-03-11T09:15:30;10.50;86.40
4811;DHT22;2419;51.276;6.472;2023-03-11T09:17:58;10.00;84.50
4811;DHT22;2419;51.276;6.472;2023-03-11T09:20:27;10.00;86.80
4811;DHT22;2419;51.276;6.472;2023-03-11T09:22:55;10.00;86.90
4811;DHT22;2419;51.276;6.472;2023-03-11T09:25:23;10.00;86.80
4811;DHT22;2419;51.276;6.472;2023-03-11T09:27:51;9.60;86.60
4811;DHT22;2419;51.276;6.472;2023-03-11T09:30:20;9.00;87.90
4811;DHT22;2419;51.276;6.472;2023-03-11T09:32:50;9.50;83.40
4811;DHT22;2419;51.276;6.472;2023-03-11T09:35:18;8.40;85.20
4811;DHT22;2419;51.276;6.472;2023-03-11T09:37:46;8.20;88.90
4811;DHT22;2419;51.276;6.472;2023-03-11T09:40:17;8.50;85.90
4811;DHT22;2419;51.276;6.472;2023-03-11T09:42:52;9.40;88.60
4811;DHT22;2419;51.276;6.472;2023-03-11T09:45:25;9.50;84.80
4811;DHT22;2419;51.276;6.472;2023-03-11T09:48:16;9.70;83.50
4811;DHT22;2419;51.276;6.472;2023-03-11T09:50:51;10.10;82.50
4811;DHT22;2419;51.276;6.472;2023-03-11T09:53:28;10.20;81.20
4811;DHT22;2419;51.276;6.472;2023-03-11T09:56:03;8.90;79.30
4811;DHT22;2419;51.276;6.472;2023-03-11T09:58:36;7.70;84.80
4811;DHT22;2419;51.276;6.472;2023-03-11T10:01:14;7.90;88.90
4811;DHT22;2419;51.276;6.472;2023-03-11T10:03:45;8.90;85.90
4811;DHT22;2419;51.276;6.472;2023-03-11T10:06:16;9.60;82.20
4811;DHT22;2419;51.276;6.472;2023-03-11T10:08:51;9.70;76.40
4811;DHT22;2419;51.276;6.472;2023-03-11T10:11:36;9.40;78.30
4811;DHT22;2419;51.276;6.472;2023-03-11T10:14:24;8.70;79.80
4811;DHT22;2419;51.276;6.472;2023-03-11T10:17:00;8.40;80.80
4811;DHT22;2419;51.276;6.472;2023-03-11T10:19:37;8.60;79.80
4811;DHT22;2419;51.276;6.472;2023-03-11T10:22:14;8.40;79.40
4811;DHT22;2419;51.276;6.472;2023-03-11T10:25:00;9.10;79.00
4811;DHT22;2419;51.276;6.472;2023-03-11T10:27:34;10.20;76.40
4811;DHT22;2419;51.276;6.472;2023-03-11T10:30:14;11.30;75.00
4811;DHT22;2419;51.276;6.472;2023-03-11T10:32:47;12.10;70.80
4811;DHT22;2419;51.276;6.472;2023-03-11T10:35:21;12.10;74.90
4811;DHT22;2419;51.276;6.472;2023-03-11T10:37:52;12.00;72.20
4811;DHT22;2419;51.276;6.472;2023-03-11T10:40:27;11.50;71.80
4811;DHT22;2419;51.276;6.472;2023-03-11T10:42:58;10.50;70.50
4811;DHT22;2419;51.276;6.472;2023-03-11T10:45:32;10.40;73.00
4811;DHT22;2419;51.276;6.472;2023-03-11T10:48:08;10.20;74.20
4811;DHT22;2419;51.276;6.472;2023-03-11T10:50:45;11.30;73.90
4811;DHT22;2419;51.276;6.472;2023-03-11T10:53:15;10.60;70.40
4811;DHT22;2419;51.276;6.472;2023-03-11T10:55:45;10.10;73.50
4811;DHT22;2419;51.276;6.472;2023-03-11T10:58:22;9.30;73.40
4811;DHT22;2419;51.276;6.472;2023-03-11T11:01:02;9.00;74.40
4811;DHT22;2419;51.276;6.472;2023-03-11T11:03:32;8.60;76.20
4811;DHT22;2419;51.276;6.472;2023-03-11T11:06:04;8.70;75.40
4811;DHT22;2419;51.276;6.472;2023-03-11T11:08:33;8.50;75.80
4811;DHT22;2419;51.276;6.472;2023-03-11T11:11:03;8.10;75.20
4811;DHT22;2419;51.276;6.472;2023-03-11T11:13:32;7.70;72.30
4811;DHT22;2419;51.276;6.472;2023-03-11T11:16:03;7.70;77.10
4811;DHT22;2419;51.276;6.472;2023-03-11T11:18:33;7.90;76.80
4811;DHT22;2419;51.276;6.472;2023-03-11T11:21:06;8.30;77.30
4811;DHT22;2419;51.276;6.472;2023-03-11T11:23:40;8.20;74.40
4811;DHT22;2419;51.276;6.472;2023-03-11T11:26:16;7.70;77.90
4811;DHT22;2419;51.276;6.472;2023-03-11T11:28:45;7.30;76.90
4811;DHT22;2419;51.276;6.472;2023-03-11T11:31:21;7.10;77.90
4811;DHT22;2419;51.276;6.472;2023-03-11T11:33:52;7.70;75.30
4811;DHT22;2419;51.276;6.472;2023-03-11T11:36:24;8.40;77.10
4811;DHT22;2419;51.276;6.472;2023-03-11T11:38:55;8.70;79.20
4811;DHT22;2419;51.276;6.472;2023-03-11T11:41:25;8.60;77.10
4811;DHT22;2419;51.276;6.472;2023-03-11T11:43:55;9.30;76.20
4811;DHT22;2419;51.276;6.472;2023-03-11T11:46:29;10.70;73.90
4811;DHT22;2419;51.276;6.472;2023-03-11T11:49:06;10.90;72.60
4811;DHT22;2419;51.276;6.472;2023-03-11T11:51:41;11.00;70.80
4811;DHT22;2419;51.276;6.472;2023-03-11T11:54:16;9.40;68.20
4811;DHT22;2419;51.276;6.472;2023-03-11T11:56:45;8.60;72.10
4811;DHT22;2419;51.276;6.472;2023-03-11T11:59:16;8.00;74.70
4811;DHT22;2419;51.276;6.472;2023-03-11T12:01:56;7.60;73.90
4811;DHT22;2419;51.276;6.472;2023-03-11T12:04:45;8.30;75.20
4811;DHT22;2419;51.276;6.472;2023-03-11T12:07:32;9.60;71.30
4811;DHT22;2419;51.276;6.472;2023-03-11T12:10:13;10.60;72.20
4811;DHT22;2419;51.276;6.472;2023-03-11T12:15:55;11.10;72.90
4811;DHT22;2419;51.276;6.472;2023-03-11T12:18:32;10.50;69.70
4811;DHT22;2419;51.276;6.472;2023-03-11T12:21:11;9.50;69.00
4811;DHT22;2419;51.276;6.472;2023-03-11T12:23:58;8.40;76.30
4811;DHT22;2419;51.276;6.472;2023-03-11T12:26:31;8.00;72.70
4811;DHT22;2419;51.276;6.472;2023-03-11T12:29:05;8.00;75.30
4811;DHT22;2419;51.276;6.472;2023-03-11T12:31:37;7.60;78.00
4811;DHT22;2419;51.276;6.472;2023-03-11T12:34:09;7.40;77.90
4811;DHT22;2419;51.276;6.472;2023-03-11T12:36:39;7.70;73.20
4811;DHT22;2419;51.276;6.472;2023-03-11T12:39:22;7.90;75.80
4811;DHT22;2419;51.276;6.472;2023-03-11T12:42:15;9.00;78.60
4811;DHT22;2419;51.276;6.472;2023-03-11T12:44:45;9.70;75.50
4811;DHT22;2419;51.276;6.472;2023-03-11T12:47:22;9.50;74.90
4811;DHT22;2419;51.276;6.472;2023-03-11T12:49:52;9.60;75.40
4811;DHT22;2419;51.276;6.472;2023-03-11T12:52:28;9.80;72.20
4811;DHT22;2419;51.276;6.472;2023-03-11T12:55:28;9.40;73.00
4811;DHT22;2419;51.276;6.472;2023-03-11T13:00:58;9.50;74.40
4811;DHT22;2419;51.276;6.472;2023-03-11T13:03:41;9.70;71.50
4811;DHT22;2419;51.276;6.472;2023-03-11T13:06:28;10.60;67.40
4811;DHT22;2419;51.276;6.472;2023-03-11T13:09:01;11.40;65.90
4811;DHT22;2419;51.276;6.472;2023-03-11T13:11:43;11.40;68.70
4811;DHT22;2419;51.276;6.472;2023-03-11T13:14:25;10.80;69.20
4811;DHT22;2419;51.276;6.472;2023-03-11T13:16:55;10.10;67.10
4811;DHT22;2419;51.276;6.472;2023-03-11T13:19:48;10.40;67.10
4811;DHT22;2419;51.276;6.472;2023-03-11T13:22:39;11.20;67.10
4811;DHT22;2419;51.276;6.472;2023-03-11T13:25:28;11.60;68.40
4811;DHT22;2419;51.276;6.472;2023-03-11T13:28:06;11.00;67.50
4811;DHT22;2419;51.276;6.472;2023-03-11T13:30:46;9.30;70.50
4811;DHT22;2419;51.276;6.472;2023-03-11T13:33:27;9.40;68.40
4811;DHT22;2419;51.276;6.472;2023-03-11T13:36:19;9.80;68.00
4811;DHT22;2419;51.276;6.472;2023-03-11T13:39:16;10.10;64.30
4811;DHT22;2419;51.276;6.472;2023-03-11T13:41:46;10.00;66.00
4811;DHT22;2419;51.276;6.472;2023-03-11T13:44:23;10.50;67.70
4811;DHT22;2419;51.276;6.472;2023-03-11T13:46:56;10.60;65.40
4811;DHT22;2419;51.276;6.472;2023-03-11T13:49:32;9.90;63.30
4811;DHT22;2419;51.276;6.472;2023-03-11T13:52:02;9.50;65.10
4811;DHT22;2419;51.276;6.472;2023-03-11T13:54:38;8.80;66.40
4811;DHT22;2419;51.276;6.472;2023-03-11T13:57:20;8.40;66.10
4811;DHT22;2419;51.276;6.472;2023-03-11T13:59:56;8.00;66.30
4811;DHT22;2419;51.276;6.472;2023-03-11T14:02:25;7.90;67.60
4811;DHT22;2419;51.276;6.472;2023-03-11T14:04:57;7.80;70.30
4811;DHT22;2419;51.276;6.472;2023-03-11T14:07:32;7.80;72.20
4811;DHT22;2419;51.276;6.472;2023-03-11T14:10:22;8.10;73.10
4811;DHT22;2419;51.276;6.472;2023-03-11T14:12:51;7.90;71.00
4811;DHT22;2419;51.276;6.472;2023-03-11T14:15:23;7.90;68.40
4811;DHT22;2419;51.276;6.472;2023-03-11T14:17:53;8.20;70.00
4811;DHT22;2419;51.276;6.472;2023-03-11T14:20:22;8.10;71.90
4811;DHT22;2419;51.276;6.472;2023-03-11T14:22:53;8.20;73.10
4811;DHT22;2419;51.276;6.472;2023-03-11T14:25:24;8.00;73.10
4811;DHT22;2419;51.276;6.472;2023-03-11T14:27:55;7.80;69.30
4811;DHT22;2419;51.276;6.472;2023-03-11T14:30:27;7.80;70.30
4811;DHT22;2419;51.276;6.472;2023-03-11T14:32:58;7.50;69.80
4811;DHT22;2419;51.276;6.472;2023-03-11T14:35:27;7.20;69.80
4811;DHT22;2419;51.276;6.472;2023-03-11T14:37:56;7.30;70.70
4811;DHT22;2419;51.276;6.472;2023-03-11T14:40:26;7.10;67.90
4811;DHT22;2419;51.276;6.472;2023-03-11T14:42:57;7.00;68.50
4811;DHT22;2419;51.276;6.472;2023-03-11T14:45:30;7.00;69.20
4811;DHT22;2419;51.276;6.472;2023-03-11T14:48:03;7.00;75.20
4811;DHT22;2419;51.276;6.472;2023-03-11T14:50:34;7.30;73.40
4811;DHT22;2419;51.276;6.472;2023-03-11T14:53:07;7.20;67.30
4811;DHT22;2419;51.276;6.472;2023-03-11T14:55:42;7.10;66.90
4811;DHT22;2419;51.276;6.472;2023-03-11T14:58:15;7.20;69.50
4811;DHT22;2419;51.276;6.472;2023-03-11T15:00:49;7.30;68.20
4811;DHT22;2419;51.276;6.472;2023-03-11T15:03:22;7.10;66.10
4811;DHT22;2419;51.276;6.472;2023-03-11T15:05:54;7.10;66.90
4811;DHT22;2419;51.276;6.472;2023-03-11T15:08:25;7.10;67.70
4811;DHT22;2419;51.276;6.472;2023-03-11T15:11:18;7.20;69.70
4811;DHT22;2419;51.276;6.472;2023-03-11T15:13:48;7.30;71.60
4811;DHT22;2419;51.276;6.472;2023-03-11T15:16:24;7.50;71.30
4811;DHT22;2419;51.276;6.472;2023-03-11T15:18:52;7.70;72.40
4811;DHT22;2419;51.276;6.472;2023-03-11T15:21:22;7.60;70.60
4811;DHT22;2419;51.276;6.472;2023-03-11T15:23:54;7.80;73.40
4811;DHT22;2419;51.276;6.472;2023-03-11T15:26:25;7.60;69.90
4811;DHT22;2419;51.276;6.472;2023-03-11T15:28:56;7.30;70.30
4811;DHT22;2419;51.276;6.472;2023-03-11T15:31:44;7.20;70.60
4811;DHT22;2419;51.276;6.472;2023-03-11T15:34:27;7.20;74.10
4811;DHT22;2419;51.276;6.472;2023-03-11T15:37:05;7.00;72.50
4811;DHT22;2419;51.276;6.472;2023-03-11T15:39:42;7.00;73.80
4811;DHT22;2419;51.276;6.472;2023-03-11T15:42:14;7.20;74.20
4811;DHT22;2419;51.276;6.472;2023-03-11T15:45:03;7.40;73.60
4811;DHT22;2419;51.276;6.472;2023-03-11T15:47:37;7.40;74.70
4811;DHT22;2419;51.276;6.472;2023-03-11T15:50:20;7.10;69.50
4811;DHT22;2419;51.276;6.472;2023-03-11T15:52:58;7.10;73.10
4811;DHT22;2419;51.276;6.472;2023-03-11T15:55:26;7.10;72.20
4811;DHT22;2419;51.276;6.472;2023-03-11T15:57:59;7.20;72.80
4811;DHT22;2419;51.276;6.472;2023-03-11T16:00:28;7.20;73.30
4811;DHT22;2419;51.276;6.472;2023-03-11T16:02:58;7.20;75.60
4811;DHT22;2419;51.276;6.472;2023-03-11T16:05:27;7.10;74.70
4811;DHT22;2419;51.276;6.472;2023-03-11T16:07:55;7.10;76.90
4811;DHT22;2419;51.276;6.472;2023-03-11T16:10:23;7.10;76.00
4811;DHT22;2419;51.276;6.472;2023-03-11T16:12:55;6.90;73.20
4811;DHT22;2419;51.276;6.472;2023-03-11T16:15:25;6.80;73.20
4811;DHT22;2419;51.276;6.472;2023-03-11T16:17:56;6.80;75.20
4811;DHT22;2419;51.276;6.472;2023-03-11T16:20:28;6.80;76.00
4811;DHT22;2419;51.276;6.472;2023-03-11T16:22:58;6.70;74.90
4811;DHT22;2419;51.276;6.472;2023-03-11T16:25:30;6.70;75.30
4811;DHT22;2419;51.276;6.472;2023-03-11T16:28:00;6.70;78.50
4811;DHT22;2419;51.276;6.472;2023-03-11T16:30:29;6.60;77.20
4811;DHT22;2419;51.276;6.472;2023-03-11T16:32:58;6.50;78.70
4811;DHT22;2419;51.276;6.472;2023-03-11T16:35:31;6.60;78.20
4811;DHT22;2419;51.276;6.472;2023-03-11T16:38:00;6.50;77.50
4811;DHT22;2419;51.276;6.472;2023-03-11T16:40:29;6.40;77.10
4811;DHT22;2419;51.276;6.472;2023-03-11T16:43:00;6.40;78.20
4811;DHT22;2419;51.276;6.472;2023-03-11T16:45:28;6.40;79.40
4811;DHT22;2419;51.276;6.472;2023-03-11T16:47:56;6.40;78.50
4811;DHT22;2419;51.276;6.472;2023-03-11T16:50:25;6.30;78.50